createdAt,value
2018-05-07T00:00:19.198Z,4.50
2018-05-07T00:01:19.128Z,4.50
2018-05-07T00:02:40.054Z,4.80
2018-05-07T00:03:40.049Z,4.50
2018-05-07T00:04:18.938Z,4.30
2018-05-07T00:05:18.883Z,4.50
2018-05-07T00:06:18.834Z,4.60
2018-05-07T00:07:18.756Z,4.70
2018-05-07T00:08:18.672Z,5.10
2018-05-07T00:09:18.613Z,4.70
2018-05-07T00:10:18.573Z,4.80
2018-05-07T00:11:18.530Z,4.70
2018-05-07T00:12:18.419Z,4.90
2018-05-07T00:13:18.377Z,5.10
2018-05-07T00:14:18.310Z,4.90
2018-05-07T00:15:18.245Z,4.50
2018-05-07T00:16:39.163Z,4.70
2018-05-07T00:17:18.112Z,4.60
2018-05-07T00:18:18.126Z,4.40
2018-05-07T00:19:17.985Z,4.70
2018-05-07T00:20:17.929Z,4.30
2018-05-07T00:21:17.854Z,4.50
2018-05-07T00:22:17.791Z,4.50
2018-05-07T00:23:17.727Z,4.50
2018-05-07T00:24:17.673Z,4.40
2018-05-07T00:25:17.644Z,4.40
2018-05-07T00:26:17.544Z,4.60
2018-05-07T00:27:17.528Z,4.80
2018-05-07T00:28:17.445Z,4.40
2018-05-07T00:29:17.375Z,4.30
2018-05-07T00:30:17.319Z,4.30
2018-05-07T00:31:17.218Z,4.40
2018-05-07T00:32:17.151Z,4.60
2018-05-07T00:33:17.156Z,5.20
2018-05-07T00:34:17.026Z,4.70
2018-05-07T00:35:16.962Z,4.60
2018-05-07T00:36:16.907Z,5.10
2018-05-07T00:37:16.848Z,4.80
2018-05-07T00:38:16.772Z,5.00
2018-05-07T00:39:16.725Z,4.60
2018-05-07T00:40:16.647Z,4.90
2018-05-07T00:41:16.632Z,4.80
2018-05-07T00:42:16.523Z,4.60
2018-05-07T00:43:16.460Z,4.70
2018-05-07T00:44:16.404Z,4.70
2018-05-07T00:45:16.335Z,4.60
2018-05-07T00:46:16.278Z,4.70
2018-05-07T00:47:16.211Z,4.80
2018-05-07T00:48:16.141Z,4.90
2018-05-07T00:49:16.080Z,4.70
2018-05-07T00:50:16.012Z,4.90
2018-05-07T00:51:15.962Z,5.10
2018-05-07T00:52:15.897Z,4.60
2018-05-07T00:53:15.824Z,4.60
2018-05-07T00:54:15.760Z,4.70
2018-05-07T00:55:15.698Z,4.80
2018-05-07T00:58:10.690Z,4.70
2018-05-07T00:59:44.967Z,5.00
2018-05-07T01:00:44.854Z,4.80
2018-05-07T01:02:40.168Z,4.50
2018-05-07T01:03:40.061Z,5.00
2018-05-07T01:05:35.375Z,5.20
2018-05-07T01:06:35.265Z,4.60
2018-05-07T01:08:30.675Z,4.80
2018-05-07T01:09:51.465Z,4.40
2018-05-07T01:10:30.417Z,4.40
2018-05-07T01:11:30.368Z,5.10
2018-05-07T01:12:30.269Z,4.60
2018-05-07T01:13:30.229Z,5.00
2018-05-07T01:14:30.144Z,4.90
2018-05-07T01:15:30.094Z,4.90
2018-05-07T01:16:30.022Z,5.10
2018-05-07T01:17:50.960Z,5.20
2018-05-07T01:18:29.896Z,5.20
2018-05-07T01:19:29.830Z,5.10
2018-05-07T01:20:29.781Z,5.70
2018-05-07T01:21:29.719Z,5.80
2018-05-07T01:22:29.653Z,5.70
2018-05-07T01:23:29.597Z,5.70
2018-05-07T01:24:29.521Z,5.70
2018-05-07T01:25:29.495Z,5.50
2018-05-07T01:26:29.395Z,6.00
2018-05-07T01:27:29.334Z,5.50
2018-05-07T01:28:29.273Z,5.30
2018-05-07T01:29:29.204Z,5.40
2018-05-07T01:30:50.126Z,5.30
2018-05-07T01:31:29.070Z,5.40
2018-05-07T01:32:29.022Z,5.10
2018-05-07T01:33:28.950Z,5.10
2018-05-07T01:34:28.885Z,5.00
2018-05-07T01:35:28.836Z,5.00
2018-05-07T01:36:28.768Z,4.50
2018-05-07T01:37:28.686Z,4.70
2018-05-07T01:38:28.637Z,4.80
2018-05-07T01:39:28.584Z,4.80
2018-05-07T01:40:28.515Z,5.20
2018-05-07T01:41:49.431Z,4.90
2018-05-07T01:42:49.367Z,4.60
2018-05-07T01:43:28.319Z,5.30
2018-05-07T01:44:28.251Z,5.50
2018-05-07T01:45:28.182Z,4.80
2018-05-07T01:46:28.139Z,4.90
2018-05-07T01:47:28.069Z,4.90
2018-05-07T01:48:27.994Z,5.00
2018-05-07T01:49:27.937Z,5.40
2018-05-07T01:50:27.877Z,5.10
2018-05-07T01:51:48.791Z,5.60
2018-05-07T01:52:27.753Z,5.40
2018-05-07T01:53:27.704Z,4.90
2018-05-07T01:54:27.607Z,5.70
2018-05-07T01:55:27.540Z,5.60
2018-05-07T01:56:27.503Z,5.80
2018-05-07T01:57:27.418Z,5.60
2018-05-07T01:58:27.360Z,5.70
2018-05-07T01:59:27.307Z,5.70
2018-05-07T02:00:27.229Z,5.60
2018-05-07T02:01:27.166Z,5.80
2018-05-07T02:02:27.112Z,5.90
2018-05-07T02:03:27.039Z,6.10
2018-05-07T02:04:26.981Z,6.00
2018-05-07T02:05:26.912Z,5.80
2018-05-07T02:06:26.877Z,6.00
2018-05-07T02:07:26.796Z,6.20
2018-05-07T02:08:26.730Z,5.90
2018-05-07T02:09:26.670Z,6.00
2018-05-07T02:10:26.603Z,5.80
2018-05-07T02:11:26.532Z,6.10
2018-05-07T02:12:26.487Z,5.80
2018-05-07T02:13:26.403Z,5.90
2018-05-07T02:16:00.388Z,5.80
2018-05-07T02:17:00.293Z,6.10
2018-05-07T02:18:56.698Z,5.70
2018-05-07T02:19:56.365Z,6.00
2018-05-07T02:21:51.657Z,5.50
2018-05-07T02:22:51.556Z,5.90
2018-05-07T02:24:46.872Z,5.50
2018-05-07T02:25:46.768Z,5.80
2018-05-07T02:27:42.058Z,5.60
2018-05-07T02:28:41.964Z,5.60
2018-05-07T02:30:38.107Z,5.10
2018-05-07T02:31:38.029Z,5.20
2018-05-07T02:33:54.319Z,4.90
2018-05-07T02:35:28.584Z,5.10
2018-05-07T02:36:28.483Z,5.40
2018-05-07T02:38:44.730Z,5.00
2018-05-07T02:40:18.988Z,4.80
2018-05-07T02:41:18.923Z,5.10
2018-05-07T02:43:14.201Z,4.80
2018-05-07T02:44:14.112Z,4.90
2018-05-07T02:46:09.422Z,5.10
2018-05-07T02:47:09.320Z,4.80
2018-05-07T02:49:04.638Z,5.00
2018-05-07T02:50:04.517Z,4.20
2018-05-07T02:51:59.785Z,4.80
2018-05-07T02:52:59.714Z,4.80
2018-05-07T02:54:55.129Z,4.40
2018-05-07T02:55:54.926Z,4.90
2018-05-07T02:57:50.166Z,4.80
2018-05-07T02:58:50.089Z,4.70
2018-05-07T03:00:46.266Z,4.80
2018-05-07T03:01:46.145Z,4.70
2018-05-07T03:03:42.236Z,5.20
2018-05-07T03:05:57.518Z,5.40
2018-05-07T03:06:57.436Z,5.20
2018-05-07T03:08:52.725Z,4.30
2018-05-07T03:09:52.597Z,4.90
2018-05-07T03:11:47.888Z,4.40
2018-05-07T03:12:47.807Z,4.50
2018-05-07T03:14:43.233Z,5.00
2018-05-07T03:15:43.019Z,4.60
2018-05-07T03:17:38.379Z,4.80
2018-05-07T03:18:38.239Z,5.10
2018-05-07T03:20:33.509Z,4.80
2018-05-07T03:21:33.460Z,4.80
2018-05-07T03:23:28.739Z,5.00
2018-05-07T03:24:28.644Z,4.30
2018-05-07T03:26:23.968Z,4.50
2018-05-07T03:27:23.868Z,4.60
2018-05-07T03:29:19.144Z,4.80
2018-05-07T03:30:19.069Z,4.20
2018-05-07T03:32:14.352Z,4.90
2018-05-07T03:33:14.267Z,4.80
2018-05-07T03:35:09.570Z,4.70
2018-05-07T03:36:09.551Z,4.40
2018-05-07T03:38:04.781Z,4.50
2018-05-07T03:39:04.668Z,4.90
2018-05-07T03:41:20.951Z,4.90
2018-05-07T03:42:55.260Z,4.60
2018-05-07T03:43:55.139Z,4.60
2018-05-07T03:45:50.459Z,5.10
2018-05-07T03:46:50.331Z,5.00
2018-05-07T03:48:46.489Z,4.80
2018-05-07T03:49:46.359Z,5.10
2018-05-07T03:51:42.470Z,5.20
2018-05-07T03:52:42.394Z,5.10
2018-05-07T03:54:37.775Z,5.10
2018-05-07T03:55:37.596Z,4.90
2018-05-07T03:57:32.879Z,5.10
2018-05-07T03:58:32.780Z,5.10
2018-05-07T04:00:28.192Z,5.10
2018-05-07T04:01:27.988Z,4.80
2018-05-07T04:03:23.270Z,5.40
2018-05-07T04:04:23.184Z,4.90
2018-05-07T04:06:18.507Z,5.50
2018-05-07T04:07:18.438Z,5.70
2018-05-07T04:09:13.697Z,5.40
2018-05-07T04:10:13.581Z,5.30
2018-05-07T04:12:08.872Z,5.30
2018-05-07T04:13:08.812Z,5.80
2018-05-07T04:15:04.103Z,5.20
2018-05-07T04:16:03.979Z,5.20
2018-05-07T04:17:59.305Z,5.30
2018-05-07T04:18:59.165Z,5.50
2018-05-07T04:20:54.488Z,5.40
2018-05-07T04:21:54.385Z,5.50
2018-05-07T04:23:49.666Z,5.30
2018-05-07T04:24:49.556Z,5.40
2018-05-07T04:26:45.707Z,5.20
2018-05-07T04:27:45.625Z,5.80
2018-05-07T04:29:40.935Z,5.70
2018-05-07T04:30:40.818Z,5.90
2018-05-07T04:32:36.127Z,5.10
2018-05-07T04:33:36.001Z,5.90
2018-05-07T04:35:32.175Z,5.70
2018-05-07T04:36:32.086Z,5.50
2018-05-07T04:38:27.416Z,5.90
2018-05-07T04:39:27.317Z,5.60
2018-05-07T04:41:22.628Z,5.60
2018-05-07T04:42:22.510Z,6.10
2018-05-07T04:44:17.788Z,6.00
2018-05-07T04:45:17.708Z,6.40
2018-05-07T04:47:13.011Z,6.00
2018-05-07T04:48:12.899Z,5.90
2018-05-07T04:50:08.226Z,6.40
2018-05-07T04:51:08.084Z,6.80
2018-05-07T04:53:04.925Z,6.30
2018-05-07T04:54:04.817Z,6.10
2018-05-07T04:56:00.105Z,5.90
2018-05-07T04:58:15.360Z,6.30
2018-05-07T04:59:15.287Z,5.90
2018-05-07T05:01:10.576Z,5.90
2018-05-07T05:02:10.472Z,6.20
2018-05-07T05:04:05.781Z,6.30
2018-05-07T05:05:05.653Z,6.20
2018-05-07T05:07:00.922Z,6.40
2018-05-07T05:08:00.850Z,6.10
2018-05-07T05:09:56.146Z,5.90
2018-05-07T05:10:56.040Z,5.80
2018-05-07T05:12:51.361Z,5.50
2018-05-07T05:13:51.252Z,5.40
2018-05-07T05:15:46.551Z,5.80
2018-05-07T05:16:46.442Z,5.40
2018-05-07T05:18:41.727Z,5.30
2018-05-07T05:19:41.635Z,5.70
2018-05-07T05:21:57.921Z,5.90
2018-05-07T05:23:33.012Z,5.40
2018-05-07T05:24:32.925Z,5.60
2018-05-07T05:26:28.283Z,5.40
2018-05-07T05:27:28.127Z,5.40
2018-05-07T05:29:24.238Z,6.00
2018-05-07T05:30:24.153Z,6.00
2018-05-07T05:32:19.454Z,6.50
2018-05-07T05:33:19.355Z,6.20
2018-05-07T05:35:14.749Z,6.50
2018-05-07T05:36:14.540Z,6.50
2018-05-07T05:38:09.841Z,6.90
2018-05-07T05:39:09.744Z,6.80
2018-05-07T05:41:05.040Z,6.60
2018-05-07T05:42:04.995Z,6.90
2018-05-07T05:44:00.236Z,6.30
2018-05-07T05:45:00.115Z,5.80
2018-05-07T05:46:56.273Z,6.30
2018-05-07T05:47:56.176Z,6.20
2018-05-07T05:49:51.495Z,6.00
2018-05-07T05:50:51.357Z,6.30
2018-05-07T05:52:46.689Z,6.30
2018-05-07T05:55:01.908Z,6.20
2018-05-07T05:56:01.824Z,5.70
2018-05-07T05:57:57.141Z,5.50
2018-05-07T06:00:12.395Z,5.80
2018-05-07T06:02:27.627Z,5.70
2018-05-07T06:03:27.579Z,5.70
2018-05-07T06:04:27.494Z,5.70
2018-05-07T06:05:27.421Z,5.70
2018-05-07T06:06:48.337Z,5.20
2018-05-07T06:07:27.309Z,5.60
2018-05-07T06:08:27.220Z,5.50
2018-05-07T06:09:27.157Z,6.00
2018-05-07T06:10:27.100Z,5.40
2018-05-07T06:11:27.030Z,5.90
2018-05-07T06:12:27.029Z,6.00
2018-05-07T06:13:26.901Z,5.70
2018-05-07T06:14:26.911Z,5.50
2018-05-07T06:15:26.785Z,5.90
2018-05-07T06:18:00.764Z,5.70
2018-05-07T06:20:16.933Z,5.90
2018-05-07T06:21:16.895Z,5.90
2018-05-07T06:23:12.168Z,5.80
2018-05-07T06:24:12.016Z,5.40
2018-05-07T06:26:28.381Z,5.10
2018-05-07T06:28:02.573Z,5.20
2018-05-07T06:29:02.501Z,5.40
2018-05-07T06:30:02.417Z,5.10
2018-05-07T06:31:02.384Z,5.20
2018-05-07T06:32:02.301Z,5.90
2018-05-07T06:33:02.215Z,6.30
2018-05-07T06:34:02.167Z,6.30
2018-05-07T06:35:02.104Z,6.30
2018-05-07T06:36:02.037Z,6.80
2018-05-07T06:37:01.967Z,6.70
2018-05-07T06:38:01.904Z,7.50
2018-05-07T06:39:01.848Z,7.90
2018-05-07T06:40:01.778Z,7.90
2018-05-07T06:41:01.784Z,7.40
2018-05-07T06:42:01.644Z,7.90
2018-05-07T06:43:01.588Z,7.90
2018-05-07T06:44:01.515Z,8.20
2018-05-07T06:45:01.444Z,8.50
2018-05-07T06:46:01.471Z,8.80
2018-05-07T06:47:01.337Z,8.20
2018-05-07T06:48:01.276Z,8.40
2018-05-07T06:49:22.206Z,8.70
2018-05-07T06:50:01.136Z,9.50
2018-05-07T06:51:22.055Z,9.00
2018-05-07T06:52:01.019Z,9.80
2018-05-07T06:53:00.950Z,9.40
2018-05-07T06:54:00.895Z,9.60
2018-05-07T06:55:00.808Z,9.50
2018-05-07T06:56:00.750Z,9.70
2018-05-07T06:57:00.693Z,9.80
2018-05-07T06:58:00.629Z,10.20
2018-05-07T06:59:00.563Z,10.10
2018-05-07T07:00:00.505Z,10.10
2018-05-07T07:01:21.426Z,10.20
2018-05-07T07:02:00.363Z,10.70
2018-05-07T07:03:00.327Z,10.60
2018-05-07T07:04:00.238Z,10.90
2018-05-07T07:05:00.181Z,10.40
2018-05-07T07:06:00.124Z,9.50
2018-05-07T07:07:00.053Z,9.60
2018-05-07T07:08:00.077Z,9.20
2018-05-07T07:08:59.934Z,8.80
2018-05-07T07:09:59.865Z,8.90
2018-05-07T07:12:34.683Z,8.30
2018-05-07T07:13:34.585Z,8.40
2018-05-07T07:15:29.889Z,8.10
2018-05-07T07:16:29.862Z,8.40
2018-05-07T07:18:25.095Z,8.00
2018-05-07T07:19:24.990Z,8.00
2018-05-07T07:21:20.292Z,8.30
2018-05-07T07:22:20.218Z,7.70
2018-05-07T07:24:16.364Z,7.80
2018-05-07T07:25:16.255Z,7.70
2018-05-07T07:27:11.536Z,7.30
2018-05-07T07:28:11.540Z,7.20
2018-05-07T07:30:06.826Z,7.70
2018-05-07T07:31:06.681Z,7.40
2018-05-07T07:33:02.068Z,7.60
2018-05-07T07:34:01.894Z,8.00
2018-05-07T07:35:01.809Z,7.60
2018-05-07T07:36:01.748Z,7.60
2018-05-07T07:37:01.707Z,8.00
2018-05-07T07:38:01.626Z,8.00
2018-05-07T07:39:01.570Z,8.50
2018-05-07T07:40:01.503Z,8.70
2018-05-07T07:41:01.442Z,8.80
2018-05-07T07:42:01.384Z,8.30
2018-05-07T07:43:01.318Z,8.00
2018-05-07T07:44:01.258Z,8.00
2018-05-07T07:45:01.197Z,7.30
2018-05-07T07:46:01.137Z,7.10
2018-05-07T07:47:01.105Z,7.00
2018-05-07T07:48:01.021Z,7.30
2018-05-07T07:49:00.953Z,6.90
2018-05-07T07:50:00.897Z,6.20
2018-05-07T07:51:00.827Z,6.60
2018-05-07T07:52:00.809Z,6.10
2018-05-07T07:53:00.690Z,6.10
2018-05-07T07:54:00.639Z,5.80
2018-05-07T07:55:21.564Z,5.60
2018-05-07T07:56:00.514Z,5.90
2018-05-07T07:57:00.446Z,5.90
2018-05-07T07:58:00.448Z,5.90
2018-05-07T07:59:00.328Z,5.90
2018-05-07T08:00:00.271Z,6.00
2018-05-07T08:01:00.195Z,5.80
2018-05-07T08:02:00.140Z,6.00
2018-05-07T08:03:00.085Z,6.40
2018-05-07T08:04:00.018Z,6.60
2018-05-07T08:04:59.952Z,6.80
2018-05-07T08:05:59.897Z,7.30
2018-05-07T08:07:20.844Z,8.00
2018-05-07T08:07:59.790Z,7.80
2018-05-07T08:08:59.709Z,7.00
2018-05-07T08:09:59.657Z,7.20
2018-05-07T08:10:59.590Z,6.70
2018-05-07T08:11:59.542Z,7.10
2018-05-07T08:12:59.465Z,6.70
2018-05-07T08:13:59.395Z,6.40
2018-05-07T08:14:59.333Z,6.40
2018-05-07T08:15:59.290Z,7.00
2018-05-07T08:16:59.217Z,6.70
2018-05-07T08:17:59.156Z,7.30
2018-05-07T08:18:59.094Z,6.10
2018-05-07T08:19:59.024Z,6.30
2018-05-07T08:20:58.982Z,7.00
2018-05-07T08:21:58.911Z,6.20
2018-05-07T08:22:58.855Z,7.00
2018-05-07T08:23:58.831Z,6.60
2018-05-07T08:24:58.720Z,7.20
2018-05-07T08:25:58.664Z,6.70
2018-05-07T08:26:58.637Z,7.10
2018-05-07T08:27:58.548Z,6.80
2018-05-07T08:28:58.467Z,7.30
2018-05-07T08:29:58.414Z,6.40
2018-05-07T08:31:19.334Z,6.30
2018-05-07T08:31:58.293Z,6.20
2018-05-07T08:32:58.224Z,6.20
2018-05-07T08:33:58.165Z,6.00
2018-05-07T08:35:19.091Z,6.50
2018-05-07T08:35:58.035Z,5.90
2018-05-07T08:36:57.976Z,5.80
2018-05-07T08:37:57.902Z,6.10
2018-05-07T08:38:57.844Z,5.30
2018-05-07T08:39:57.797Z,5.80
2018-05-07T08:40:57.733Z,5.80
2018-05-07T08:41:57.656Z,5.20
2018-05-07T08:42:57.602Z,5.60
2018-05-07T08:43:57.529Z,5.40
2018-05-07T08:44:57.482Z,5.70
2018-05-07T08:45:57.413Z,5.70
2018-05-07T08:46:57.357Z,5.70
2018-05-07T08:47:57.288Z,6.00
2018-05-07T08:48:57.227Z,6.20
2018-05-07T08:49:57.159Z,6.00
2018-05-07T08:51:18.092Z,6.00
2018-05-07T08:51:57.041Z,6.30
2018-05-07T08:52:57.004Z,6.30
2018-05-07T08:53:56.912Z,6.90
2018-05-07T08:54:56.844Z,6.60
2018-05-07T08:55:56.797Z,6.80
2018-05-07T08:56:56.718Z,6.60
2018-05-07T08:57:56.656Z,6.80
2018-05-07T08:58:56.607Z,6.80
2018-05-07T08:59:56.528Z,6.80
2018-05-07T09:00:56.485Z,6.30
2018-05-07T09:02:17.507Z,6.40
2018-05-07T09:02:56.358Z,6.60
2018-05-07T09:03:56.286Z,6.90
2018-05-07T09:04:56.224Z,6.60
2018-05-07T09:05:56.160Z,6.70
2018-05-07T09:06:56.096Z,7.00
2018-05-07T09:07:56.044Z,7.00
2018-05-07T09:08:55.982Z,6.50
2018-05-07T09:09:55.917Z,6.40
2018-05-07T09:11:16.836Z,7.00
2018-05-07T09:11:55.800Z,6.90
2018-05-07T09:12:55.732Z,7.20
2018-05-07T09:13:55.673Z,6.60
2018-05-07T09:14:55.594Z,6.80
2018-05-07T09:15:55.560Z,7.00
2018-05-07T09:16:55.483Z,6.80
2018-05-07T09:17:55.424Z,6.80
2018-05-07T09:18:55.361Z,7.10
2018-05-07T09:19:55.293Z,6.80
2018-05-07T09:20:55.228Z,6.60
2018-05-07T09:21:55.165Z,7.00
2018-05-07T09:22:55.113Z,7.40
2018-05-07T09:23:55.036Z,6.60
2018-05-07T09:24:54.997Z,6.50
2018-05-07T09:25:54.930Z,6.60
2018-05-07T09:26:54.857Z,6.90
2018-05-07T09:27:54.829Z,6.80
2018-05-07T09:28:54.737Z,6.90
2018-05-07T09:29:54.681Z,6.80
2018-05-07T09:30:54.657Z,6.60
2018-05-07T09:31:54.550Z,6.90
2018-05-07T09:33:15.474Z,6.60
2018-05-07T09:33:54.419Z,7.00
2018-05-07T09:34:54.375Z,6.70
2018-05-07T09:35:54.301Z,7.10
2018-05-07T09:36:54.272Z,7.10
2018-05-07T09:37:54.203Z,6.40
2018-05-07T09:38:54.117Z,6.60
2018-05-07T09:40:15.045Z,6.60
2018-05-07T09:40:53.988Z,6.20
2018-05-07T09:41:53.925Z,6.60
2018-05-07T09:42:53.924Z,6.50
2018-05-07T09:43:53.796Z,7.20
2018-05-07T09:44:53.749Z,6.60
2018-05-07T09:45:53.683Z,6.60
2018-05-07T09:46:53.616Z,7.30
2018-05-07T09:47:53.559Z,7.00
2018-05-07T09:48:53.591Z,6.90
2018-05-07T09:49:53.441Z,7.30
2018-05-07T09:50:53.367Z,6.80
2018-05-07T09:51:53.313Z,6.40
2018-05-07T09:52:53.259Z,6.30
2018-05-07T09:53:53.183Z,6.80
2018-05-07T09:54:53.160Z,6.60
2018-05-07T09:55:53.062Z,6.90
2018-05-07T09:56:53.098Z,7.00
2018-05-07T09:58:13.938Z,7.70
2018-05-07T09:58:52.890Z,8.00
2018-05-07T09:59:52.821Z,8.00
2018-05-07T10:00:52.767Z,8.60
2018-05-07T10:01:52.702Z,7.70
2018-05-07T10:02:52.641Z,7.60
2018-05-07T10:03:52.570Z,7.80
2018-05-07T10:04:52.517Z,7.50
2018-05-07T10:05:52.450Z,8.00
2018-05-07T10:06:52.400Z,7.60
2018-05-07T10:07:52.335Z,7.00
2018-05-07T10:08:52.274Z,6.90
2018-05-07T10:09:52.208Z,6.40
2018-05-07T10:10:52.151Z,6.10
2018-05-07T10:11:52.081Z,6.50
2018-05-07T10:12:52.036Z,6.50
2018-05-07T10:13:51.975Z,7.10
2018-05-07T10:14:51.907Z,7.20
2018-05-07T10:15:51.855Z,6.70
2018-05-07T10:16:51.781Z,6.70
2018-05-07T10:17:51.765Z,7.20
2018-05-07T10:18:51.663Z,7.00
2018-05-07T10:19:51.604Z,6.60
2018-05-07T10:20:51.543Z,7.20
2018-05-07T10:21:51.487Z,7.20
2018-05-07T10:23:12.433Z,6.90
2018-05-07T10:23:51.364Z,7.70
2018-05-07T10:24:51.297Z,7.70
2018-05-07T10:25:51.243Z,7.50
2018-05-07T10:26:51.171Z,8.30
2018-05-07T10:27:51.122Z,7.90
2018-05-07T10:28:51.066Z,7.50
2018-05-07T10:29:51.018Z,7.10
2018-05-07T10:31:11.925Z,7.20
2018-05-07T10:31:50.876Z,7.20
2018-05-07T10:32:50.816Z,7.00
2018-05-07T10:33:50.747Z,6.80
2018-05-07T10:34:50.686Z,7.30
2018-05-07T10:35:50.623Z,7.00
2018-05-07T10:36:50.567Z,7.10
2018-05-07T10:37:50.521Z,7.40
2018-05-07T10:38:50.460Z,7.60
2018-05-07T10:39:50.392Z,7.90
2018-05-07T10:40:50.331Z,7.50
2018-05-07T10:41:50.274Z,7.10
2018-05-07T10:42:50.285Z,7.00
2018-05-07T10:44:11.142Z,7.20
2018-05-07T10:44:50.092Z,7.20
2018-05-07T10:45:50.036Z,6.80
2018-05-07T10:46:49.982Z,7.30
2018-05-07T10:47:49.914Z,6.60
2018-05-07T10:48:49.845Z,6.80
2018-05-07T10:49:49.792Z,7.00
2018-05-07T10:50:49.743Z,6.80
2018-05-07T10:51:49.680Z,7.10
2018-05-07T10:52:49.608Z,7.00
2018-05-07T10:53:49.553Z,7.20
2018-05-07T10:54:49.505Z,7.00
2018-05-07T10:55:49.428Z,6.60
2018-05-07T10:56:49.369Z,7.10
2018-05-07T10:57:49.313Z,6.20
2018-05-07T10:58:49.247Z,5.70
2018-05-07T10:59:49.185Z,5.30
2018-05-07T11:00:49.121Z,4.60
2018-05-07T11:01:49.080Z,5.10
2018-05-07T11:02:49.009Z,4.90
2018-05-07T11:03:48.966Z,5.30
2018-05-07T11:04:48.893Z,6.60
2018-05-07T11:05:48.840Z,6.40
2018-05-07T11:06:48.775Z,6.80
2018-05-07T11:07:48.755Z,5.50
2018-05-07T11:08:48.654Z,6.70
2018-05-07T11:09:48.585Z,6.90
2018-05-07T11:10:48.525Z,5.60
2018-05-07T11:11:48.476Z,4.90
2018-05-07T11:12:48.404Z,5.80
2018-05-07T11:13:48.343Z,6.10
2018-05-07T11:14:48.319Z,5.90
2018-05-07T11:15:48.238Z,5.70
2018-05-07T11:16:48.177Z,5.00
2018-05-07T11:17:48.110Z,5.20
2018-05-07T11:18:48.064Z,5.00
2018-05-07T11:19:48.053Z,4.30
2018-05-07T11:20:47.933Z,4.60
2018-05-07T11:21:47.861Z,4.70
2018-05-07T11:22:47.816Z,4.40
2018-05-07T11:23:47.751Z,4.20
2018-05-07T11:24:47.691Z,4.90
2018-05-07T11:25:47.638Z,8.50
2018-05-07T11:26:47.577Z,5.40
2018-05-07T11:27:47.518Z,5.90
2018-05-07T11:28:47.462Z,4.20
2018-05-07T11:29:47.388Z,4.40
2018-05-07T11:31:08.391Z,4.00
2018-05-07T11:31:47.284Z,3.90
2018-05-07T11:32:47.203Z,4.00
2018-05-07T11:33:47.166Z,3.30
2018-05-07T11:34:47.095Z,3.60
2018-05-07T11:35:47.032Z,3.60
2018-05-07T11:36:46.977Z,4.10
2018-05-07T11:37:46.916Z,3.60
2018-05-07T11:38:46.852Z,3.20
2018-05-07T11:39:46.810Z,3.40
2018-05-07T11:40:46.738Z,3.30
2018-05-07T11:41:46.663Z,3.30
2018-05-07T11:42:46.618Z,3.50
2018-05-07T11:43:46.556Z,3.40
2018-05-07T11:44:46.489Z,3.30
2018-05-07T11:45:46.439Z,3.10
2018-05-07T11:46:46.363Z,3.00
2018-05-07T11:47:46.361Z,3.10
2018-05-07T11:48:46.250Z,3.00
2018-05-07T11:51:41.614Z,3.30
2018-05-07T11:53:15.576Z,3.10
2018-05-07T11:54:15.453Z,3.30
2018-05-07T11:56:10.715Z,2.90
2018-05-07T11:57:10.640Z,3.00
2018-05-07T11:59:05.915Z,2.80
2018-05-07T12:00:05.868Z,3.00
2018-05-07T12:02:01.174Z,3.10
2018-05-07T12:03:01.057Z,3.20
2018-05-07T12:04:56.427Z,3.20
2018-05-07T12:05:56.262Z,3.10
2018-05-07T12:07:51.546Z,3.00
2018-05-07T12:08:51.495Z,3.30
2018-05-07T12:10:46.902Z,3.00
2018-05-07T12:11:46.673Z,3.30
2018-05-07T12:13:41.985Z,3.50
2018-05-07T12:14:41.888Z,3.70
2018-05-07T12:16:37.192Z,3.10
2018-05-07T12:17:37.097Z,2.80
2018-05-07T12:19:32.422Z,3.70
2018-05-07T12:20:32.299Z,3.60
2018-05-07T12:22:27.626Z,3.40
2018-05-07T12:23:27.536Z,4.40
2018-05-07T12:25:22.960Z,3.50
2018-05-07T12:26:22.731Z,3.60
2018-05-07T12:27:22.673Z,3.50
2018-05-07T12:28:22.609Z,3.30
2018-05-07T12:29:43.542Z,3.10
2018-05-07T12:30:43.489Z,3.40
2018-05-07T12:31:22.530Z,2.80
2018-05-07T12:32:22.381Z,3.30
2018-05-07T12:33:22.338Z,3.20
2018-05-07T12:34:43.250Z,3.30
2018-05-07T12:35:22.207Z,3.20
2018-05-07T12:36:22.143Z,3.10
2018-05-07T12:37:22.092Z,2.90
2018-05-07T12:38:22.019Z,2.90
2018-05-07T12:39:21.960Z,3.20
2018-05-07T12:40:21.889Z,2.90
2018-05-07T12:41:21.840Z,3.20
2018-05-07T12:43:55.836Z,3.20
2018-05-07T12:46:32.092Z,3.10
2018-05-07T12:48:07.451Z,3.10
2018-05-07T12:50:22.405Z,3.10
2018-05-07T12:51:22.335Z,3.30
2018-05-07T12:53:39.526Z,3.30
2018-05-07T12:55:13.841Z,3.20
2018-05-07T12:57:50.042Z,3.20
2018-05-07T12:59:24.429Z,3.60
2018-05-07T13:00:24.251Z,3.50
2018-05-07T13:02:19.540Z,3.70
2018-05-07T13:04:34.803Z,3.30
2018-05-07T13:05:34.704Z,3.20
2018-05-07T13:07:30.049Z,3.50
2018-05-07T13:08:29.932Z,3.30
2018-05-07T13:10:25.428Z,3.60
2018-05-07T13:11:25.175Z,3.40
2018-05-07T13:13:20.452Z,3.30
2018-05-07T13:14:20.366Z,3.60
2018-05-07T13:16:15.695Z,3.40
2018-05-07T13:17:15.628Z,3.50
2018-05-07T13:19:10.858Z,3.50
2018-05-07T13:21:26.138Z,3.20
2018-05-07T13:23:41.385Z,3.50
2018-05-07T13:24:41.299Z,3.30
2018-05-07T13:26:36.612Z,3.30
2018-05-07T13:27:36.517Z,3.20
2018-05-07T13:29:31.823Z,3.60
2018-05-07T13:30:31.726Z,3.50
2018-05-07T13:32:27.060Z,3.50
2018-05-07T13:33:26.949Z,4.10
2018-05-07T13:35:22.324Z,3.90
2018-05-07T13:36:22.176Z,4.00
2018-05-07T13:38:17.489Z,3.80
2018-05-07T13:39:17.376Z,4.00
2018-05-07T13:41:12.699Z,3.80
2018-05-07T13:42:12.597Z,4.00
2018-05-07T13:44:08.757Z,3.60
2018-05-07T13:45:08.683Z,3.50
2018-05-07T13:47:04.826Z,3.80
2018-05-07T13:48:04.699Z,3.60
2018-05-07T13:49:59.965Z,4.30
2018-05-07T13:50:59.966Z,4.40
2018-05-07T13:52:55.195Z,3.80
2018-05-07T13:53:55.104Z,3.90
2018-05-07T13:56:11.405Z,3.70
2018-05-07T13:57:45.658Z,4.10
2018-05-07T13:58:45.569Z,4.30
2018-05-07T14:00:40.961Z,4.10
2018-05-07T14:01:40.859Z,4.20
2018-05-07T14:02:40.830Z,4.10
2018-05-07T14:03:40.677Z,3.90
2018-05-07T14:04:40.618Z,3.40
2018-05-07T14:05:40.557Z,4.00
2018-05-07T14:06:40.481Z,3.70
2018-05-07T14:07:40.446Z,4.00
2018-05-07T14:08:40.377Z,3.80
2018-05-07T14:09:40.323Z,4.30
2018-05-07T14:10:40.252Z,3.90
2018-05-07T14:11:40.200Z,3.90
2018-05-07T14:12:40.136Z,4.00
2018-05-07T14:13:40.063Z,3.80
2018-05-07T14:14:39.999Z,4.10
2018-05-07T14:15:39.947Z,4.10
2018-05-07T14:16:39.948Z,3.80
2018-05-07T14:17:39.839Z,3.90
2018-05-07T14:19:00.760Z,4.40
2018-05-07T14:19:39.704Z,4.20
2018-05-07T14:20:39.648Z,3.80
2018-05-07T14:21:39.583Z,3.80
2018-05-07T14:22:39.537Z,3.80
2018-05-07T14:23:39.465Z,3.90
2018-05-07T14:24:39.412Z,4.10
2018-05-07T14:25:39.359Z,4.30
2018-05-07T14:26:39.280Z,3.90
2018-05-07T14:27:39.243Z,4.10
2018-05-07T14:28:39.163Z,3.90
2018-05-07T14:29:39.101Z,3.70
2018-05-07T14:30:39.043Z,3.80
2018-05-07T14:31:59.973Z,3.70
2018-05-07T14:32:59.910Z,4.00
2018-05-07T14:33:59.850Z,3.90
2018-05-07T14:34:38.811Z,3.80
2018-05-07T14:35:38.761Z,4.00
2018-05-07T14:36:38.694Z,3.80
2018-05-07T14:37:38.617Z,3.90
2018-05-07T14:38:38.584Z,3.80
2018-05-07T14:39:38.503Z,3.80
2018-05-07T14:40:38.440Z,4.20
2018-05-07T14:41:38.388Z,4.00
2018-05-07T14:42:38.322Z,3.90
2018-05-07T14:43:38.272Z,4.00
2018-05-07T14:44:38.196Z,3.90
2018-05-07T14:45:38.149Z,4.10
2018-05-07T14:46:38.093Z,4.10
2018-05-07T14:47:38.033Z,4.00
2018-05-07T14:48:37.956Z,3.60
2018-05-07T14:49:37.903Z,3.80
2018-05-07T14:50:37.853Z,3.80
2018-05-07T14:51:37.778Z,3.50
2018-05-07T14:52:37.733Z,3.80
2018-05-07T14:53:37.666Z,3.70
2018-05-07T14:54:37.613Z,3.90
2018-05-07T14:55:37.540Z,3.70
2018-05-07T14:56:37.542Z,3.40
2018-05-07T14:57:37.418Z,3.50
2018-05-07T14:58:37.375Z,3.80
2018-05-07T14:59:37.310Z,3.70
2018-05-07T15:00:37.242Z,3.90
2018-05-07T15:01:37.184Z,3.70
2018-05-07T15:02:58.114Z,4.00
2018-05-07T15:03:37.064Z,3.80
2018-05-07T15:04:37.012Z,3.90
2018-05-07T15:05:37.040Z,4.10
2018-05-07T15:06:36.890Z,3.60
2018-05-07T15:07:36.830Z,4.20
2018-05-07T15:08:36.767Z,4.00
2018-05-07T15:09:36.699Z,4.10
2018-05-07T15:10:36.654Z,3.90
2018-05-07T15:11:36.589Z,3.80
2018-05-07T15:14:11.429Z,3.80
2018-05-07T15:15:11.267Z,3.70
2018-05-07T15:17:06.584Z,4.20
2018-05-07T15:18:06.481Z,3.70
2018-05-07T15:20:01.894Z,3.80
2018-05-07T15:21:01.681Z,3.70
2018-05-07T15:22:57.016Z,3.50
2018-05-07T15:23:56.895Z,3.60
2018-05-07T15:25:52.177Z,4.60
2018-05-07T15:26:52.108Z,4.10
2018-05-07T15:28:47.526Z,4.10
2018-05-07T15:29:47.343Z,4.30
2018-05-07T15:31:43.480Z,3.40
2018-05-07T15:32:43.385Z,3.90
2018-05-07T15:34:38.879Z,3.80
2018-05-07T15:35:38.615Z,3.90
2018-05-07T15:37:34.021Z,3.50
2018-05-07T15:39:49.183Z,3.80
2018-05-07T15:40:49.090Z,4.10
2018-05-07T20:51:02.385Z,3.20
2018-05-07T20:52:36.492Z,4.30
2018-05-07T20:53:36.395Z,3.80
2018-05-07T20:54:36.331Z,3.70
2018-05-07T20:55:36.266Z,3.90
2018-05-07T20:56:36.215Z,3.90